createdAt,value
2023-03-21T00:00:47.459Z,25.97
2023-03-21T00:01:52.092Z,25.96
2023-03-21T00:02:55.298Z,25.97
2023-03-21T00:03:58.394Z,25.97
2023-03-21T00:05:13.344Z,25.97
2023-03-21T00:06:07.962Z,25.97
2023-03-21T00:07:12.174Z,25.96
2023-03-21T00:08:15.255Z,25.98
2023-03-21T00:09:18.279Z,25.98
2023-03-21T00:10:37.179Z,25.98
2023-03-21T00:11:28.222Z,25.98
2023-03-21T00:12:31.877Z,25.98
2023-03-21T00:13:36.459Z,26.00
2023-03-21T00:14:39.770Z,25.99
2023-03-21T00:16:17.463Z,25.99
2023-03-21T00:16:58.811Z,25.99
2023-03-21T00:18:03.206Z,25.99
2023-03-21T00:19:09.228Z,26.00
2023-03-21T00:20:14.309Z,26.00
2023-03-21T00:22:23.846Z,25.99
2023-03-21T00:23:48.213Z,26.01
2023-03-21T00:24:51.719Z,26.00
2023-03-21T00:25:55.883Z,25.99
2023-03-21T00:27:15.879Z,26.00
2023-03-21T00:28:08.379Z,25.99
2023-03-21T00:29:07.967Z,25.99
2023-03-21T00:30:13.233Z,26.00
2023-03-21T00:31:17.545Z,26.00
2023-03-21T00:32:20.977Z,26.00
2023-03-21T00:33:24.243Z,25.99
2023-03-21T00:34:37.020Z,26.00
2023-03-21T00:35:57.930Z,25.99
2023-03-21T00:36:40.200Z,25.99
2023-03-21T00:37:42.784Z,25.99
2023-03-21T00:38:46.416Z,25.99
2023-03-21T00:39:49.400Z,26.00
2023-03-21T00:40:52.159Z,25.99
2023-03-21T00:41:55.524Z,26.01
2023-03-21T00:43:00.028Z,26.00
2023-03-21T00:44:03.595Z,26.01
2023-03-21T00:45:10.106Z,26.00
2023-03-21T00:46:15.124Z,26.01
2023-03-21T00:47:18.250Z,26.01
2023-03-21T00:48:23.154Z,26.01
2023-03-21T00:49:32.089Z,26.02
2023-03-21T00:50:36.140Z,26.02
2023-03-21T00:51:39.116Z,26.02
2023-03-21T00:52:42.018Z,26.02
2023-03-21T00:53:44.856Z,26.03
2023-03-21T00:54:47.467Z,26.03
2023-03-21T00:55:50.015Z,26.02
2023-03-21T00:56:53.253Z,26.03
2023-03-21T00:58:02.045Z,26.02
2023-03-21T00:59:01.277Z,26.02
2023-03-21T01:00:06.826Z,26.01
2023-03-21T01:01:10.081Z,26.02
2023-03-21T01:02:15.360Z,26.01
2023-03-21T01:03:25.017Z,26.01
2023-03-21T01:04:26.964Z,26.01
2023-03-21T01:05:48.731Z,26.00
2023-03-21T01:06:51.640Z,26.00
2023-03-21T01:07:54.861Z,25.99
2023-03-21T01:08:57.298Z,25.98
2023-03-21T01:10:01.033Z,25.98
2023-03-21T01:11:06.436Z,25.98
2023-03-21T01:12:10.027Z,25.96
2023-03-21T01:13:14.068Z,25.96
2023-03-21T01:14:24.749Z,25.98
2023-03-21T01:15:21.859Z,25.96
2023-03-21T01:16:24.874Z,25.96
2023-03-21T01:17:28.215Z,25.96
2023-03-21T01:18:31.052Z,25.96
2023-03-21T01:19:50.328Z,25.95
2023-03-21T01:20:41.023Z,25.95
2023-03-21T01:21:44.320Z,25.96
2023-03-21T01:22:46.791Z,25.95
2023-03-21T01:23:50.146Z,25.96
2023-03-21T01:24:58.509Z,25.97
2023-03-21T01:25:57.076Z,25.96
2023-03-21T01:27:01.018Z,25.92
2023-03-21T01:28:05.051Z,25.92
2023-03-21T01:29:08.163Z,25.96
2023-03-21T01:30:19.621Z,25.97
2023-03-21T01:31:17.400Z,25.97
2023-03-21T01:32:20.181Z,25.96
2023-03-21T01:33:23.252Z,25.97
2023-03-21T01:34:25.846Z,25.97
2023-03-21T01:35:32.100Z,25.98
2023-03-21T01:36:33.216Z,25.97
2023-03-21T01:37:37.763Z,25.97
2023-03-21T01:38:41.426Z,25.97
2023-03-21T01:39:43.987Z,25.97
2023-03-21T01:40:48.142Z,25.97
2023-03-21T01:41:52.417Z,25.97
2023-03-21T01:42:57.267Z,25.98
2023-03-21T01:43:59.877Z,25.98
2023-03-21T01:45:27.085Z,25.98
2023-03-21T01:47:07.745Z,25.97
2023-03-21T01:47:48.289Z,25.96
2023-03-21T01:49:01.886Z,25.96
2023-03-21T01:50:05.728Z,25.95
2023-03-21T01:52:37.539Z,26.05
2023-03-21T01:53:39.313Z,25.93
2023-03-21T01:54:43.557Z,25.92
2023-03-21T01:55:47.342Z,25.92
2023-03-21T01:56:53.815Z,25.92
2023-03-21T01:58:12.326Z,25.93
2023-03-21T01:59:07.133Z,25.93
2023-03-21T02:00:19.563Z,25.93
2023-03-21T02:01:23.481Z,25.93
2023-03-21T02:02:30.994Z,25.93
2023-03-21T02:04:51.346Z,26.03
2023-03-21T02:06:02.176Z,25.93
2023-03-21T02:07:09.758Z,25.92
2023-03-21T02:08:14.178Z,25.91
2023-03-21T02:09:20.113Z,25.91
2023-03-21T02:10:22.889Z,25.92
2023-03-21T02:11:27.499Z,25.92
2023-03-21T02:12:30.409Z,25.93
2023-03-21T02:13:35.012Z,25.93
2023-03-21T02:14:38.685Z,25.93
2023-03-21T02:15:49.283Z,25.94
2023-03-21T02:17:10.747Z,25.94
2023-03-21T02:18:21.168Z,25.94
2023-03-21T02:19:52.641Z,25.94
2023-03-21T02:21:08.654Z,25.93
2023-03-21T02:22:36.159Z,25.93
2023-03-21T02:24:11.778Z,25.91
2023-03-21T02:25:43.317Z,25.89
2023-03-21T02:27:11.638Z,25.88
2023-03-21T02:28:22.018Z,25.87
2023-03-21T02:31:22.086Z,25.93
2023-03-21T02:32:38.325Z,25.81
2023-03-21T02:34:13.987Z,25.79
2023-03-21T02:35:56.726Z,25.79
2023-03-21T02:38:12.901Z,25.76
2023-03-21T02:39:22.821Z,25.76
2023-03-21T02:40:32.327Z,25.75
2023-03-21T02:41:47.935Z,25.76
2023-03-21T02:43:01.415Z,25.76
2023-03-21T02:44:09.177Z,25.76
2023-03-21T02:46:53.615Z,25.88
2023-03-21T02:47:55.555Z,25.76
2023-03-21T02:50:43.624Z,25.90
2023-03-21T02:51:46.642Z,25.79
2023-03-21T02:52:49.650Z,25.78
2023-03-21T02:54:26.389Z,25.80
2023-03-21T02:55:15.853Z,25.81
2023-03-21T02:56:33.086Z,25.81
2023-03-21T02:57:42.603Z,25.82
2023-03-21T02:58:40.372Z,25.83
2023-03-21T02:59:53.222Z,25.83
2023-03-21T03:00:50.844Z,25.84
2023-03-21T03:01:58.301Z,25.85
2023-03-21T03:03:09.715Z,25.86
2023-03-21T03:05:31.292Z,25.98
2023-03-21T03:06:41.575Z,25.87
2023-03-21T03:08:32.451Z,25.86
2023-03-21T03:09:49.256Z,25.87
2023-03-21T03:11:07.286Z,25.87
2023-03-21T03:12:22.910Z,25.86
2023-03-21T03:13:58.196Z,25.86
2023-03-21T03:15:17.596Z,25.85
2023-03-21T03:18:12.514Z,25.94
2023-03-21T03:19:26.085Z,25.83
2023-03-21T03:20:38.565Z,25.82
2023-03-21T03:23:36.735Z,25.89
2023-03-21T03:25:02.812Z,25.79
2023-03-21T03:26:32.930Z,25.79
2023-03-21T03:27:37.567Z,25.79
2023-03-21T03:28:42.134Z,25.79
2023-03-21T03:29:46.653Z,25.79
2023-03-21T03:31:07.537Z,25.78
2023-03-21T03:32:15.123Z,25.78
2023-03-21T03:33:19.622Z,25.79
2023-03-21T03:34:26.140Z,25.78
2023-03-21T03:35:29.263Z,25.80
2023-03-21T03:36:35.576Z,25.80
2023-03-21T03:37:40.884Z,25.80
2023-03-21T03:38:43.376Z,25.81
2023-03-21T03:41:11.008Z,25.94
2023-03-21T03:42:29.006Z,25.83
2023-03-21T03:43:43.485Z,25.84
2023-03-21T03:44:59.250Z,25.84
2023-03-21T03:46:09.889Z,25.85
2023-03-21T03:47:32.889Z,25.85
2023-03-21T03:48:34.193Z,25.86
2023-03-21T03:51:04.910Z,25.97
2023-03-21T03:53:40.753Z,25.99
2023-03-21T03:54:44.858Z,25.88
2023-03-21T03:55:47.981Z,25.89
2023-03-21T03:56:51.787Z,25.88
2023-03-21T03:57:54.972Z,25.89
2023-03-21T03:58:58.755Z,25.92
2023-03-21T04:00:05.541Z,25.92
2023-03-21T04:01:22.317Z,25.94
2023-03-21T04:02:25.364Z,25.94
2023-03-21T04:03:39.220Z,25.94
2023-03-21T04:04:36.374Z,25.95
2023-03-21T04:05:39.323Z,25.96
2023-03-21T04:06:45.346Z,25.96
2023-03-21T04:09:13.685Z,26.09
2023-03-21T04:10:11.724Z,25.97
2023-03-21T04:11:15.919Z,25.97
2023-03-21T04:12:20.217Z,25.98
2023-03-21T04:13:25.332Z,25.98
2023-03-21T04:14:45.716Z,25.99
2023-03-21T04:15:44.769Z,25.99
2023-03-21T04:16:49.940Z,25.99
2023-03-21T04:17:53.112Z,26.00
2023-03-21T04:18:55.822Z,26.02
2023-03-21T04:20:11.022Z,26.01
2023-03-21T04:22:21.592Z,26.14
2023-03-21T04:23:24.684Z,26.03
2023-03-21T04:24:27.377Z,26.02
2023-03-21T04:25:34.102Z,26.02
2023-03-21T04:26:38.839Z,26.04
2023-03-21T04:27:52.527Z,26.03
2023-03-21T04:29:15.451Z,26.04
2023-03-21T04:30:21.218Z,26.03
2023-03-21T04:31:33.313Z,26.03
2023-03-21T04:32:39.125Z,26.02
2023-03-21T04:33:44.624Z,26.03
2023-03-21T04:34:49.310Z,26.03
2023-03-21T04:37:10.706Z,26.15
2023-03-21T04:38:13.668Z,26.03
2023-03-21T04:39:17.421Z,26.04
2023-03-21T04:40:25.150Z,26.03
2023-03-21T04:41:28.534Z,26.04
2023-03-21T04:42:34.945Z,26.04
2023-03-21T04:43:37.428Z,26.04
2023-03-21T04:44:42.626Z,26.04
2023-03-21T04:45:46.193Z,26.06
2023-03-21T04:46:49.850Z,26.05
2023-03-21T04:47:52.808Z,26.07
2023-03-21T04:48:56.405Z,26.06
2023-03-21T04:49:59.801Z,26.08
2023-03-21T04:51:03.260Z,26.09
2023-03-21T04:52:06.278Z,26.08
2023-03-21T04:53:09.752Z,26.10
2023-03-21T04:54:17.179Z,26.09
2023-03-21T04:55:23.864Z,26.09
2023-03-21T04:56:36.076Z,26.10
2023-03-21T04:57:39.787Z,26.11
2023-03-21T04:58:42.329Z,26.11
2023-03-21T04:59:45.408Z,26.11
2023-03-21T05:00:50.002Z,26.11
2023-03-21T05:01:53.037Z,26.11
2023-03-21T05:02:57.122Z,26.12
2023-03-21T05:04:00.021Z,26.13
2023-03-21T05:05:02.774Z,26.13
2023-03-21T05:06:08.400Z,26.13
2023-03-21T05:07:11.174Z,26.13
2023-03-21T05:08:14.130Z,26.14
2023-03-21T05:09:17.127Z,26.14
2023-03-21T05:10:19.938Z,26.15
2023-03-21T05:11:23.600Z,26.14
2023-03-21T05:12:26.415Z,26.14
2023-03-21T05:13:29.322Z,26.13
2023-03-21T05:14:31.932Z,26.13
2023-03-21T05:15:36.089Z,26.15
2023-03-21T05:16:42.307Z,26.15
2023-03-21T05:17:47.915Z,26.14
2023-03-21T05:18:54.211Z,26.14
2023-03-21T05:19:57.315Z,26.13
2023-03-21T05:21:00.578Z,26.13
2023-03-21T05:22:05.054Z,26.13
2023-03-21T05:23:11.139Z,26.12
2023-03-21T05:24:19.430Z,26.12
2023-03-21T05:25:24.191Z,26.12
2023-03-21T05:26:32.170Z,26.10
2023-03-21T05:27:37.091Z,26.09
2023-03-21T05:28:47.145Z,26.10
2023-03-21T05:29:49.944Z,26.09
2023-03-21T05:30:52.957Z,26.08
2023-03-21T05:31:56.499Z,26.06
2023-03-21T05:33:00.270Z,26.06
2023-03-21T05:34:04.032Z,26.05
2023-03-21T05:35:07.628Z,26.04
2023-03-21T05:36:10.855Z,26.04
2023-03-21T05:37:15.355Z,25.97
2023-03-21T05:38:19.830Z,26.02
2023-03-21T05:39:24.148Z,26.02
2023-03-21T05:40:29.509Z,26.02
2023-03-21T05:41:34.076Z,26.01
2023-03-21T05:42:38.804Z,26.01
2023-03-21T05:43:44.418Z,26.00
2023-03-21T05:44:47.437Z,25.99
2023-03-21T05:45:50.058Z,26.00
2023-03-21T05:46:53.467Z,26.01
2023-03-21T05:47:57.827Z,26.00
2023-03-21T05:49:02.369Z,26.01
2023-03-21T05:50:06.874Z,26.00
2023-03-21T05:51:09.743Z,26.00
2023-03-21T05:52:26.159Z,26.00
2023-03-21T05:53:29.133Z,25.99
2023-03-21T05:54:33.060Z,26.00
2023-03-21T05:55:36.460Z,26.00
2023-03-21T05:56:40.073Z,26.00
2023-03-21T05:57:44.911Z,26.00
2023-03-21T05:58:55.439Z,26.00
2023-03-21T05:59:58.728Z,26.01
2023-03-21T06:01:03.153Z,26.00
2023-03-21T06:02:07.529Z,25.99
2023-03-21T06:03:10.251Z,26.01
2023-03-21T06:04:18.828Z,26.00
2023-03-21T06:05:23.282Z,26.01
2023-03-21T06:06:26.613Z,26.00
2023-03-21T06:07:31.350Z,26.01
2023-03-21T06:08:34.875Z,25.99
2023-03-21T06:09:37.308Z,25.99
2023-03-21T06:10:41.633Z,26.00
2023-03-21T06:11:47.018Z,26.01
2023-03-21T06:13:00.474Z,26.00
2023-03-21T06:14:05.206Z,26.01
2023-03-21T06:15:09.859Z,26.01
2023-03-21T06:16:14.812Z,26.00
2023-03-21T06:17:17.317Z,26.01
2023-03-21T06:18:21.808Z,26.00
2023-03-21T06:19:27.103Z,26.01
2023-03-21T06:20:32.637Z,26.00
2023-03-21T06:21:37.033Z,26.00
2023-03-21T06:22:41.310Z,26.01
2023-03-21T06:23:45.828Z,26.00
2023-03-21T06:24:48.698Z,26.00
2023-03-21T06:25:54.227Z,26.01
2023-03-21T06:26:59.250Z,26.01
2023-03-21T06:28:02.732Z,26.02
2023-03-21T06:29:05.679Z,26.03
2023-03-21T06:30:11.289Z,26.04
2023-03-21T06:31:16.460Z,26.04
2023-03-21T06:32:20.220Z,26.04
2023-03-21T06:33:25.521Z,26.05
2023-03-21T06:34:28.211Z,26.06
2023-03-21T06:35:30.780Z,26.04
2023-03-21T06:36:33.633Z,26.05
2023-03-21T06:37:36.297Z,26.04
2023-03-21T06:38:38.976Z,26.05
2023-03-21T06:39:41.961Z,26.05
2023-03-21T06:40:48.850Z,26.04
2023-03-21T06:41:51.907Z,26.06
2023-03-21T06:42:55.194Z,26.04
2023-03-21T06:43:58.062Z,26.04
2023-03-21T06:45:03.536Z,26.03
2023-03-21T06:46:06.651Z,26.03
2023-03-21T06:47:09.269Z,26.03
2023-03-21T06:48:13.023Z,25.98
2023-03-21T06:49:23.282Z,25.98
2023-03-21T06:50:26.272Z,26.03
2023-03-21T06:51:28.880Z,26.04
2023-03-21T06:52:33.730Z,26.03
2023-03-21T06:53:37.219Z,26.03
2023-03-21T06:54:45.468Z,26.03
2023-03-21T06:55:50.664Z,26.02
2023-03-21T06:56:54.917Z,26.01
2023-03-21T06:57:59.244Z,26.02
2023-03-21T06:59:02.970Z,26.01
2023-03-21T07:00:09.505Z,26.00
2023-03-21T07:01:14.233Z,26.01
2023-03-21T07:02:18.639Z,26.01
2023-03-21T07:03:24.031Z,26.01
2023-03-21T07:04:27.378Z,26.01
2023-03-21T07:05:30.601Z,26.02
2023-03-21T07:06:33.709Z,26.02
2023-03-21T07:07:36.392Z,26.00
2023-03-21T07:08:40.871Z,25.99
2023-03-21T07:09:44.595Z,25.98
2023-03-21T07:10:47.323Z,25.98
2023-03-21T07:11:52.320Z,25.98
2023-03-21T07:14:12.726Z,26.06
2023-03-21T07:15:17.640Z,25.93
2023-03-21T07:16:21.165Z,25.91
2023-03-21T07:17:25.561Z,25.91
2023-03-21T07:18:29.562Z,25.89
2023-03-21T07:19:32.468Z,25.89
2023-03-21T07:20:37.721Z,25.87
2023-03-21T07:21:40.275Z,25.86
2023-03-21T07:22:42.732Z,25.84
2023-03-21T07:23:47.050Z,25.82
2023-03-21T07:25:03.974Z,25.80
2023-03-21T07:26:00.924Z,25.79
2023-03-21T07:27:04.895Z,25.81
2023-03-21T07:28:09.188Z,25.82
2023-03-21T07:29:12.751Z,25.82
2023-03-21T07:30:16.984Z,25.84
2023-03-21T07:31:20.486Z,25.84
2023-03-21T07:32:24.086Z,25.82
2023-03-21T07:33:26.985Z,25.81
2023-03-21T07:34:33.064Z,25.82
2023-03-21T07:35:37.759Z,25.81
2023-03-21T07:36:42.865Z,25.80
2023-03-21T07:37:46.225Z,25.79
2023-03-21T07:38:51.930Z,25.79
2023-03-21T07:39:57.267Z,25.79
2023-03-21T07:41:02.420Z,25.76
2023-03-21T07:42:07.400Z,25.76
2023-03-21T07:43:14.896Z,25.74
2023-03-21T07:44:19.804Z,25.70
2023-03-21T07:45:25.711Z,25.70
2023-03-21T07:46:28.267Z,25.71
2023-03-21T07:47:31.786Z,25.73
2023-03-21T07:48:35.502Z,25.73
2023-03-21T07:49:40.252Z,25.73
2023-03-21T07:50:49.109Z,25.72
2023-03-21T07:51:52.717Z,25.72
2023-03-21T07:52:55.849Z,25.72
2023-03-21T07:53:58.846Z,25.73
2023-03-21T07:55:01.246Z,25.73
2023-03-21T07:56:04.697Z,25.74
2023-03-21T07:57:07.443Z,25.75
2023-03-21T07:58:10.986Z,25.75
2023-03-21T07:59:13.563Z,25.75
2023-03-21T08:00:19.645Z,25.75
2023-03-21T08:01:24.067Z,25.75
2023-03-21T08:02:28.926Z,25.75
2023-03-21T08:03:33.362Z,25.73
2023-03-21T08:04:36.116Z,25.73
2023-03-21T08:05:39.332Z,25.75
2023-03-21T08:06:42.010Z,25.76
2023-03-21T08:07:44.947Z,25.70
2023-03-21T08:08:48.016Z,25.70
2023-03-21T08:09:51.797Z,25.75
2023-03-21T08:10:55.053Z,25.76
2023-03-21T08:11:58.232Z,25.77
2023-03-21T08:13:03.776Z,25.77
2023-03-21T08:14:06.998Z,25.77
2023-03-21T08:15:11.096Z,25.78
2023-03-21T08:16:13.880Z,25.78
2023-03-21T08:17:17.256Z,25.78
2023-03-21T08:18:20.019Z,25.78
2023-03-21T08:19:22.986Z,25.77
2023-03-21T08:20:26.738Z,25.79
2023-03-21T08:21:29.429Z,25.78
2023-03-21T08:22:32.470Z,25.76
2023-03-21T08:23:36.711Z,25.76
2023-03-21T08:24:39.729Z,25.75
2023-03-21T08:25:47.429Z,25.75
2023-03-21T08:26:50.973Z,25.75
2023-03-21T08:27:53.836Z,25.75
2023-03-21T08:28:56.865Z,25.75
2023-03-21T08:30:01.328Z,25.76
2023-03-21T08:31:08.970Z,25.76
2023-03-21T08:32:11.417Z,25.75
2023-03-21T08:33:14.160Z,25.75
2023-03-21T08:34:18.543Z,25.75
2023-03-21T08:35:21.238Z,25.76
2023-03-21T08:36:24.164Z,25.75
2023-03-21T08:37:26.815Z,25.75
2023-03-21T08:38:33.124Z,25.73
2023-03-21T08:39:35.761Z,25.73
2023-03-21T08:40:41.700Z,25.73
2023-03-21T08:41:44.770Z,25.73
2023-03-21T08:42:48.157Z,25.74
2023-03-21T08:43:51.818Z,25.71
2023-03-21T08:44:55.495Z,25.71
2023-03-21T08:45:58.357Z,25.71
2023-03-21T08:47:01.248Z,25.71
2023-03-21T08:48:04.297Z,25.71
2023-03-21T08:49:07.516Z,25.71
2023-03-21T08:50:13.051Z,25.71
2023-03-21T08:51:16.201Z,25.70
2023-03-21T08:52:18.978Z,25.69
2023-03-21T08:53:21.666Z,25.70
2023-03-21T08:54:24.011Z,25.69
2023-03-21T08:55:26.432Z,25.69
2023-03-21T08:56:28.970Z,25.69
2023-03-21T08:57:32.685Z,25.68
2023-03-21T08:58:36.900Z,25.69
2023-03-21T08:59:39.845Z,25.70
2023-03-21T09:00:42.793Z,25.70
2023-03-21T09:01:46.551Z,25.69
2023-03-21T09:02:51.416Z,25.69
2023-03-21T09:03:53.871Z,25.70
2023-03-21T09:04:58.141Z,25.70
2023-03-21T09:06:02.178Z,25.70
2023-03-21T09:07:05.464Z,25.70
2023-03-21T09:08:09.010Z,25.70
2023-03-21T09:09:15.520Z,25.70
2023-03-21T09:10:22.708Z,25.71
2023-03-21T09:11:27.512Z,25.70
2023-03-21T09:12:30.750Z,25.69
2023-03-21T09:13:34.479Z,25.69
2023-03-21T09:14:38.393Z,25.69
2023-03-21T09:15:41.712Z,25.68
2023-03-21T09:16:44.766Z,25.69
2023-03-21T09:17:49.117Z,25.71
2023-03-21T09:18:55.275Z,25.69
2023-03-21T09:19:59.974Z,25.71
2023-03-21T09:21:10.121Z,25.70
2023-03-21T09:22:17.485Z,25.70
2023-03-21T09:23:20.962Z,25.70
2023-03-21T09:24:23.602Z,25.70
2023-03-21T09:25:29.323Z,25.69
2023-03-21T09:26:33.831Z,25.70
2023-03-21T09:27:36.926Z,25.70
2023-03-21T09:28:39.900Z,25.70
2023-03-21T09:29:44.179Z,25.70
2023-03-21T09:30:46.885Z,25.69
2023-03-21T09:31:50.516Z,25.70
2023-03-21T09:34:09.985Z,25.82
2023-03-21T09:35:12.977Z,25.70
2023-03-21T09:36:17.128Z,25.68
2023-03-21T09:37:22.064Z,25.70
2023-03-21T09:38:26.692Z,25.70
2023-03-21T09:39:30.185Z,25.70
2023-03-21T09:40:53.131Z,25.71
2023-03-21T09:42:15.270Z,25.71
2023-03-21T09:43:32.596Z,25.71
2023-03-21T09:44:43.742Z,25.71
2023-03-21T09:47:17.467Z,25.81
2023-03-21T09:48:25.547Z,25.68
2023-03-21T09:49:34.865Z,25.66
2023-03-21T09:50:38.318Z,25.66
2023-03-21T09:51:44.063Z,25.60
2023-03-21T09:52:53.926Z,25.60
2023-03-21T09:53:57.351Z,25.66
2023-03-21T09:55:01.482Z,25.67
2023-03-21T09:56:05.977Z,25.66
2023-03-21T09:57:21.638Z,25.66
2023-03-21T09:58:37.766Z,25.67
2023-03-21T09:59:41.211Z,25.66
2023-03-21T10:00:47.022Z,25.68
2023-03-21T10:01:49.727Z,25.66
2023-03-21T10:02:56.962Z,25.67
2023-03-21T10:05:18.471Z,25.78
2023-03-21T10:06:25.388Z,25.66
2023-03-21T10:07:30.247Z,25.66
2023-03-21T10:08:39.659Z,25.66
2023-03-21T10:09:44.011Z,25.66
2023-03-21T10:10:51.902Z,25.67
2023-03-21T10:12:09.556Z,25.68
2023-03-21T10:13:15.670Z,25.67
2023-03-21T10:14:28.891Z,25.67
2023-03-21T10:15:32.134Z,25.67
2023-03-21T10:16:39.324Z,25.67
2023-03-21T10:17:43.570Z,25.68
2023-03-21T10:18:46.347Z,25.68
2023-03-21T10:19:51.097Z,25.68
2023-03-21T10:20:54.215Z,25.68
2023-03-21T10:22:02.176Z,25.68
2023-03-21T10:23:03.962Z,25.68
2023-03-21T10:24:06.663Z,25.69
2023-03-21T10:25:14.218Z,25.70
2023-03-21T10:26:20.386Z,25.70
2023-03-21T10:27:22.637Z,25.71
2023-03-21T10:28:31.179Z,25.71
2023-03-21T10:29:37.308Z,25.71
2023-03-21T10:30:43.323Z,25.71
2023-03-21T10:31:46.142Z,25.71
2023-03-21T10:32:49.213Z,25.71
2023-03-21T10:33:54.086Z,25.71
2023-03-21T10:34:58.357Z,25.71
2023-03-21T10:36:07.533Z,25.71
2023-03-21T10:37:11.042Z,25.72
2023-03-21T10:38:19.219Z,25.72
2023-03-21T10:39:28.422Z,25.67
2023-03-21T10:40:33.583Z,25.72
2023-03-21T10:41:37.757Z,25.72
2023-03-21T10:42:44.933Z,25.71
2023-03-21T10:43:49.953Z,25.72
2023-03-21T10:44:54.131Z,25.71
2023-03-21T10:45:58.132Z,25.71
2023-03-21T10:47:09.132Z,25.71
2023-03-21T10:48:12.128Z,25.72
2023-03-21T10:50:32.893Z,25.83
2023-03-21T10:51:39.287Z,25.70
2023-03-21T10:52:50.498Z,25.70
2023-03-21T10:54:01.101Z,25.72
2023-03-21T10:55:12.351Z,25.73
2023-03-21T10:56:15.989Z,25.75
2023-03-21T10:57:23.548Z,25.76
2023-03-21T10:58:29.103Z,25.77
2023-03-21T10:59:44.333Z,25.78
2023-03-21T11:00:48.839Z,25.80
2023-03-21T11:01:53.474Z,25.81
2023-03-21T11:03:12.270Z,25.82
2023-03-21T11:04:19.358Z,25.82
2023-03-21T11:05:29.185Z,25.81
2023-03-21T11:06:37.752Z,25.84
2023-03-21T11:07:40.628Z,25.86
2023-03-21T11:08:52.281Z,25.85
2023-03-21T11:10:12.325Z,25.87
2023-03-21T11:12:31.499Z,26.01
2023-03-21T11:13:39.612Z,25.91
2023-03-21T11:14:49.630Z,25.90
2023-03-21T11:15:56.929Z,25.91
2023-03-21T11:17:00.240Z,25.92
2023-03-21T11:19:35.582Z,25.96
2023-03-21T11:20:43.027Z,25.77
2023-03-21T11:21:46.364Z,25.76
2023-03-21T11:22:49.080Z,25.77
2023-03-21T11:23:52.481Z,25.80
2023-03-21T11:25:00.687Z,25.83
2023-03-21T11:26:03.821Z,25.85
2023-03-21T11:27:07.082Z,25.87
2023-03-21T11:28:15.461Z,25.88
2023-03-21T11:29:25.150Z,25.89
2023-03-21T11:30:28.208Z,25.92
2023-03-21T11:32:59.008Z,26.05
2023-03-21T11:34:04.454Z,25.95
2023-03-21T11:35:20.210Z,25.95
2023-03-21T11:37:52.828Z,26.08
2023-03-21T11:40:33.644Z,26.11
2023-03-21T11:41:36.724Z,25.98
2023-03-21T11:42:43.875Z,25.98
2023-03-21T11:43:53.548Z,25.98
2023-03-21T11:46:40.173Z,26.12
2023-03-21T11:47:43.058Z,26.01
2023-03-21T11:48:50.410Z,26.00
2023-03-21T11:49:58.438Z,26.01
2023-03-21T11:51:33.301Z,26.02
2023-03-21T11:54:07.682Z,26.14
2023-03-21T11:55:26.597Z,26.02
2023-03-21T11:57:51.435Z,26.14
2023-03-21T11:59:04.915Z,26.03
2023-03-21T12:00:28.210Z,26.02
2023-03-21T12:01:51.780Z,26.04
2023-03-21T12:03:18.323Z,26.03
2023-03-21T12:04:32.282Z,26.04
2023-03-21T12:05:37.036Z,26.04
2023-03-21T12:08:24.345Z,26.11
2023-03-21T12:09:36.824Z,25.95
2023-03-21T12:11:08.702Z,25.93
2023-03-21T12:12:41.393Z,25.93
2023-03-21T12:16:30.050Z,25.92
2023-03-21T12:17:39.957Z,25.83
2023-03-21T12:19:08.470Z,25.82
2023-03-21T12:20:15.870Z,25.82
2023-03-21T12:21:28.710Z,25.82
2023-03-21T12:23:02.281Z,25.82
2023-03-21T12:24:22.719Z,25.80
2023-03-21T12:25:28.861Z,25.82
2023-03-21T12:26:35.235Z,25.84
2023-03-21T12:27:50.590Z,25.85
2023-03-21T12:29:05.906Z,25.86
2023-03-21T12:32:20.211Z,26.01
2023-03-21T12:33:44.141Z,25.91
2023-03-21T12:34:57.395Z,25.91
2023-03-21T12:36:06.596Z,25.91
2023-03-21T12:38:39.373Z,26.00
2023-03-21T12:39:42.689Z,25.87
2023-03-21T12:40:58.256Z,25.87
2023-03-21T12:42:33.515Z,25.87
2023-03-21T12:43:46.080Z,25.87
2023-03-21T12:44:54.178Z,25.88
2023-03-21T12:46:01.438Z,25.87
2023-03-21T12:47:10.681Z,25.89
2023-03-21T12:48:22.990Z,25.90
2023-03-21T12:49:38.001Z,25.92
2023-03-21T12:50:42.321Z,25.93
2023-03-21T12:51:47.559Z,25.93
2023-03-21T12:52:54.002Z,25.95
2023-03-21T12:54:04.066Z,25.95
2023-03-21T12:56:33.356Z,26.10
2023-03-21T12:57:44.629Z,25.98
2023-03-21T12:58:50.195Z,25.98
2023-03-21T13:01:16.847Z,26.13
2023-03-21T13:02:33.654Z,26.01
2023-03-21T13:03:40.700Z,26.01
2023-03-21T13:04:47.524Z,26.03
2023-03-21T13:05:53.826Z,26.03
2023-03-21T13:06:56.820Z,26.03
2023-03-21T13:08:05.229Z,26.02
2023-03-21T13:09:19.689Z,26.02
2023-03-21T13:10:30.312Z,26.02
2023-03-21T13:11:35.986Z,26.03
2023-03-21T13:14:28.842Z,26.09
2023-03-21T13:16:55.582Z,26.08
2023-03-21T13:18:21.904Z,25.97
2023-03-21T13:19:40.503Z,25.96
2023-03-21T13:20:50.716Z,25.96
2023-03-21T13:22:26.679Z,25.98
2023-03-21T13:23:37.136Z,25.96
2023-03-21T13:24:49.500Z,25.98
2023-03-21T13:25:54.201Z,25.99
2023-03-21T13:28:34.312Z,26.10
2023-03-21T13:29:50.469Z,25.98
2023-03-21T13:30:53.595Z,25.99
2023-03-21T13:33:16.150Z,26.12
2023-03-21T13:34:24.114Z,25.99
2023-03-21T13:35:37.975Z,25.98
2023-03-21T13:36:42.123Z,25.98
2023-03-21T13:38:01.284Z,26.00
2023-03-21T13:39:05.476Z,26.01
2023-03-21T13:41:40.331Z,26.14
2023-03-21T13:42:44.324Z,26.01
2023-03-21T13:43:55.665Z,26.02
2023-03-21T13:45:02.350Z,26.03
2023-03-21T13:46:07.910Z,26.04
2023-03-21T13:47:40.779Z,26.05
2023-03-21T13:49:12.096Z,26.06
2023-03-21T13:50:21.688Z,26.06
2023-03-21T13:51:52.222Z,26.06
2023-03-21T13:53:10.917Z,26.05
2023-03-21T13:54:17.121Z,26.05
2023-03-21T13:55:20.147Z,26.04
2023-03-21T13:56:23.599Z,26.04
2023-03-21T13:57:34.184Z,26.03
2023-03-21T13:58:45.264Z,26.04
2023-03-21T13:59:48.469Z,26.04
2023-03-21T14:01:30.868Z,26.04
2023-03-21T14:02:37.157Z,26.04
2023-03-21T14:03:40.472Z,26.06
2023-03-21T14:05:03.780Z,26.06
2023-03-21T14:05:49.201Z,26.05
2023-03-21T14:06:58.839Z,26.06
2023-03-21T14:08:24.690Z,26.08
2023-03-21T14:09:23.687Z,26.07
2023-03-21T14:10:37.175Z,26.08
2023-03-21T14:11:44.408Z,26.09
2023-03-21T14:12:44.373Z,26.09
2023-03-21T14:13:51.226Z,26.10
2023-03-21T14:15:15.876Z,26.09
2023-03-21T14:16:15.816Z,26.10
2023-03-21T14:17:24.795Z,26.11
2023-03-21T14:18:52.295Z,26.11
2023-03-21T14:19:33.314Z,26.11
2023-03-21T14:20:41.653Z,26.13
2023-03-21T14:21:51.943Z,26.13
2023-03-21T14:22:54.423Z,26.13
2023-03-21T14:25:34.017Z,26.27
2023-03-21T14:26:49.803Z,26.17
2023-03-21T14:27:56.640Z,26.16
2023-03-21T14:29:00.304Z,26.17
2023-03-21T14:30:04.350Z,26.18
2023-03-21T14:31:12.923Z,26.18
2023-03-21T14:32:19.237Z,26.19
2023-03-21T14:33:35.344Z,26.19
2023-03-21T14:34:38.747Z,26.20
2023-03-21T14:35:42.972Z,26.20
2023-03-21T14:36:55.450Z,26.22
2023-03-21T14:37:50.981Z,26.22
2023-03-21T14:40:24.607Z,26.34
2023-03-21T14:41:30.275Z,26.23
2023-03-21T14:42:37.909Z,26.24
2023-03-21T14:43:40.954Z,26.24
2023-03-21T14:44:55.200Z,26.24
2023-03-21T14:45:56.716Z,26.25
2023-03-21T14:47:08.377Z,26.27
2023-03-21T14:48:13.331Z,26.27
2023-03-21T14:49:28.975Z,26.27
2023-03-21T14:51:55.200Z,26.38
2023-03-21T14:52:59.204Z,26.27
2023-03-21T14:54:02.809Z,26.27
2023-03-21T14:55:09.205Z,26.28
2023-03-21T14:56:24.427Z,26.28
2023-03-21T14:57:29.539Z,26.28
2023-03-21T14:58:32.516Z,26.29
2023-03-21T14:59:37.263Z,26.29
2023-03-21T15:00:41.955Z,26.30
2023-03-21T15:01:46.746Z,26.30
2023-03-21T15:02:56.761Z,26.31
2023-03-21T15:05:28.890Z,26.43
2023-03-21T15:06:35.218Z,26.31
2023-03-21T15:09:18.478Z,26.42
2023-03-21T15:10:21.333Z,26.32
2023-03-21T15:11:33.374Z,26.32
2023-03-21T15:12:36.276Z,26.32
2023-03-21T15:13:57.213Z,26.34
2023-03-21T15:15:02.244Z,26.33
2023-03-21T15:16:05.798Z,26.32
2023-03-21T15:17:09.422Z,26.32
2023-03-21T15:18:16.005Z,26.31
2023-03-21T15:19:21.526Z,26.32
2023-03-21T15:20:26.727Z,26.31
2023-03-21T15:21:36.398Z,26.31
2023-03-21T15:22:41.291Z,26.30
2023-03-21T15:25:01.573Z,26.39
2023-03-21T15:26:04.598Z,26.27
2023-03-21T15:27:11.305Z,26.26
2023-03-21T15:28:14.846Z,26.26
2023-03-21T15:29:17.731Z,26.26
2023-03-21T15:31:48.627Z,26.37